Time;durP1;ratioP1;P1;durP2;ratioP2;P2;SDS_P1;SDS_P2;PMS_P1;PMS_P2;Temp;Humidity;BMP_temperature;BMP_pressure;BME280_temperature;BME280_humidity;BME280_pressure;Samples;Min_cycle;Max_cycle;Signal;HPM_P1;HPM_P2
2022/12/11 00:00:15;;;;;;;14.20;7.15;;;4.00;69.70;;;;;;2339608;53;20938;-74
2022/12/11 00:02:42;;;;;;;14.07;7.15;;;4.00;69.70;;;;;;2347967;53;20902;-73
2022/12/11 00:05:08;;;;;;;14.07;7.35;;;4.00;69.70;;;;;;2322433;54;21070;-74
2022/12/11 00:07:35;;;;;;;14.13;7.20;;;4.00;69.70;;;;;;2463749;53;20923;-74
2022/12/11 00:10:04;;;;;;;13.30;6.95;;;4.00;69.80;;;;;;2369010;53;21287;-73
2022/12/11 00:12:30;;;;;;;15.05;7.68;;;4.00;69.80;;;;;;2338983;54;21105;-73
2022/12/11 00:14:57;;;;;;;18.35;9.52;;;4.00;69.80;;;;;;2338012;54;20995;-74
2022/12/11 00:17:23;;;;;;;13.40;7.25;;;4.00;69.90;;;;;;2347932;53;20964;-73
2022/12/11 00:20:45;;;;;;;15.65;8.10;;;4.00;70.00;;;;;;2585853;53;20939;-72
2022/12/11 00:23:11;;;;;;;13.65;6.20;;;4.00;69.80;;;;;;2585998;52;21802;-75
2022/12/11 00:25:43;;;;;;;13.52;6.78;;;4.00;69.90;;;;;;2338219;54;20875;-74
2022/12/11 00:28:10;;;;;;;12.50;6.37;;;4.10;70.00;;;;;;2337478;54;21819;-72
2022/12/11 00:30:41;;;;;;;12.52;6.20;;;4.10;70.00;;;;;;2342111;54;20992;-72
2022/12/11 00:33:07;;;;;;;15.63;7.10;;;4.10;70.00;;;;;;2340118;53;20923;-73
2022/12/11 00:35:38;;;;;;;12.05;6.03;;;4.10;70.00;;;;;;2331960;54;20987;-75
2022/12/11 00:38:04;;;;;;;13.68;6.82;;;4.10;70.00;;;;;;2339368;53;20959;-74
2022/12/11 00:40:45;;;;;;;14.18;6.95;;;4.10;70.00;;;;;;2336983;54;20916;-73
2022/12/11 00:43:11;;;;;;;16.45;9.00;;;4.10;70.00;;;;;;2338624;54;20998;-73
2022/12/11 00:45:39;;;;;;;15.90;8.18;;;4.10;70.00;;;;;;2340114;54;21074;-72
2022/12/11 00:48:06;;;;;;;14.15;7.47;;;4.10;70.10;;;;;;2339684;53;20939;-74
2022/12/11 00:50:32;;;;;;;17.12;8.77;;;4.10;70.20;;;;;;2337007;54;20969;-72
2022/12/11 00:52:59;;;;;;;18.75;9.45;;;4.10;70.20;;;;;;2338057;54;20982;-72
2022/12/11 00:55:27;;;;;;;15.77;8.85;;;4.10;70.20;;;;;;2345277;53;20979;-73
2022/12/11 00:57:54;;;;;;;20.90;9.80;;;4.20;70.30;;;;;;2337428;54;21897;-73
2022/12/11 01:00:21;;;;;;;16.87;8.52;;;4.20;70.30;;;;;;2386482;53;20960;-75
2022/12/11 01:02:57;;;;;;;16.48;8.40;;;4.20;70.20;;;;;;2337883;54;20915;-73
2022/12/11 01:05:24;;;;;;;14.80;7.95;;;4.20;70.10;;;;;;2338478;54;20930;-73
2022/12/11 01:07:53;;;;;;;14.05;7.45;;;4.20;70.20;;;;;;2338210;54;20943;-74
2022/12/11 01:10:25;;;;;;;16.23;7.75;;;4.20;70.10;;;;;;2337919;54;20930;-72
2022/12/11 01:13:08;;;;;;;14.98;7.68;;;4.20;70.10;;;;;;2321888;55;21068;-73
2022/12/11 01:15:47;;;;;;;13.27;6.70;;;4.20;70.00;;;;;;2321687;54;20931;-74
2022/12/11 01:18:14;;;;;;;13.60;7.32;;;4.20;69.90;;;;;;2335491;54;20927;-75
2022/12/11 01:20:41;;;;;;;18.58;8.85;;;4.20;70.10;;;;;;2356851;53;21442;-75
2022/12/11 01:23:09;;;;;;;18.95;8.57;;;4.20;70.10;;;;;;2338152;54;20931;-74
2022/12/11 01:25:37;;;;;;;17.92;9.48;;;4.20;70.10;;;;;;2338306;54;21123;-74
2022/12/11 01:28:04;;;;;;;18.92;9.52;;;4.20;70.20;;;;;;2338311;54;20931;-73
2022/12/11 01:30:30;;;;;;;17.73;9.55;;;4.20;70.30;;;;;;2352173;53;20946;-74
2022/12/11 01:32:57;;;;;;;18.15;9.75;;;4.20;70.30;;;;;;2337119;54;20895;-74
2022/12/11 01:35:57;;;;;;;19.05;9.88;;;4.30;70.30;;;;;;2343854;54;21012;-73
2022/12/11 01:38:23;;;;;;;18.62;9.27;;;4.30;70.10;;;;;;2338588;54;21753;-73
2022/12/11 01:40:50;;;;;;;14.52;7.45;;;4.30;70.40;;;;;;2337999;54;20931;-75
2022/12/11 01:43:17;;;;;;;15.77;8.35;;;4.30;70.40;;;;;;2337066;54;21507;-73
2022/12/11 01:45:44;;;;;;;16.65;8.25;;;4.30;70.40;;;;;;2343638;53;20939;-73
2022/12/11 01:48:47;;;;;;;15.90;8.75;;;4.30;70.40;;;;;;2339071;53;21571;-74
2022/12/11 01:51:13;;;;;;;16.98;8.38;;;4.30;70.10;;;;;;2342787;54;21035;-75
2022/12/11 01:53:41;;;;;;;16.85;8.82;;;4.30;70.20;;;;;;2339513;53;20984;-75
2022/12/11 01:56:08;;;;;;;16.12;8.43;;;4.30;70.30;;;;;;2345219;53;20981;-73
2022/12/11 01:58:39;;;;;;;13.00;6.85;;;4.30;70.40;;;;;;2393616;53;21055;-74
2022/12/11 02:01:08;;;;;;;14.75;6.60;;;4.30;70.40;;;;;;2342776;53;20992;-74
2022/12/11 02:03:34;;;;;;;12.15;6.35;;;4.30;70.30;;;;;;2478674;52;20991;-73
2022/12/11 02:06:01;;;;;;;13.10;6.85;;;4.40;70.30;;;;;;2434658;53;20943;-75
2022/12/11 02:08:29;;;;;;;13.32;6.60;;;4.40;70.30;;;;;;2336927;54;21772;-75
2022/12/11 02:11:15;;;;;;;16.48;7.35;;;4.40;70.20;;;;;;2338125;54;20927;-73
2022/12/11 02:13:50;;;;;;;15.95;7.68;;;4.40;69.90;;;;;;2338377;53;20994;-72
2022/12/11 02:16:18;;;;;;;;;;;4.40;70.00;;;;;;2366461;53;21979;-73
2022/12/11 02:18:54;;;;;;;13.93;7.20;;;4.40;69.40;;;;;;2423356;53;20066;-74
2022/12/11 02:23:17;;;;;;;21.23;9.88;;;4.40;69.80;;;;;;2338129;54;20975;-73
2022/12/11 02:28:30;;;;;;;21.98;10.43;;;4.30;69.20;;;;;;2338256;54;20983;-75
2022/12/11 02:31:14;;;;;;;24.12;10.15;;;4.30;68.90;;;;;;2344232;53;21009;-73
2022/12/11 02:34:03;;;;;;;24.67;11.55;;;4.30;69.10;;;;;;2356183;53;20948;-73
2022/12/11 02:36:33;;;;;;;26.12;12.20;;;4.20;69.10;;;;;;2350035;53;20957;-73
2022/12/11 02:39:01;;;;;;;31.45;13.43;;;4.20;69.00;;;;;;2342840;54;20935;-73
2022/12/11 02:41:27;;;;;;;24.73;12.32;;;4.10;68.80;;;;;;2339025;54;20914;-72
2022/12/11 02:43:53;;;;;;;29.83;13.13;;;4.10;68.70;;;;;;2345638;53;21014;-73
2022/12/11 02:46:20;;;;;;;20.20;10.20;;;4.00;68.70;;;;;;2581863;53;20994;-75
2022/12/11 02:48:47;;;;;;;26.25;12.00;;;4.00;69.00;;;;;;2442591;52;21012;-74
2022/12/11 02:51:14;;;;;;;29.33;12.07;;;3.90;69.10;;;;;;2376127;53;20915;-74
2022/12/11 02:53:41;;;;;;;24.90;11.70;;;3.90;69.10;;;;;;2443248;53;21290;-74
2022/12/11 02:56:22;;;;;;;27.67;12.27;;;3.90;69.20;;;;;;2338811;54;21393;-74
2022/12/11 02:58:53;;;;;;;25.15;10.55;;;3.90;69.20;;;;;;2346648;53;20972;-75
2022/12/11 03:01:22;;;;;;;30.17;13.77;;;3.90;69.20;;;;;;2392223;52;20895;-72
2022/12/11 03:03:48;;;;;;;24.45;11.20;;;3.90;69.30;;;;;;2541277;52;20955;-73
2022/12/11 03:06:17;;;;;;;30.37;13.93;;;3.90;69.30;;;;;;2344592;53;20963;-76
2022/12/11 03:08:50;;;;;;;28.70;12.88;;;3.90;69.40;;;;;;2454319;53;20986;-73
2022/12/11 03:11:17;;;;;;;26.87;12.18;;;3.90;69.50;;;;;;2338247;54;20935;-74
2022/12/11 03:13:43;;;;;;;29.75;13.35;;;3.90;69.50;;;;;;2490887;53;21591;-74
2022/12/11 03:16:29;;;;;;;29.58;13.30;;;3.80;69.30;;;;;;2340967;54;20964;-73
2022/12/11 03:20:06;;;;;;;31.40;13.93;;;3.90;69.20;;;;;;2558582;53;21006;-76
2022/12/11 03:22:42;;;;;;;28.17;13.07;;;3.80;68.90;;;;;;2337715;54;20947;-73
2022/12/11 03:25:22;;;;;;;29.35;13.23;;;3.80;68.80;;;;;;2343879;53;20923;-73
2022/12/11 03:27:58;;;;;;;27.67;13.60;;;3.70;68.70;;;;;;2341159;54;21471;-73
2022/12/11 03:30:25;;;;;;;28.50;13.20;;;3.70;68.70;;;;;;2341053;53;20935;-74
2022/12/11 03:34:26;;;;;;;27.50;12.73;;;3.70;68.80;;;;;;2344681;53;20951;-75
2022/12/11 03:36:53;;;;;;;25.98;11.40;;;3.70;68.70;;;;;;2582790;52;21403;-74
2022/12/11 03:39:23;;;;;;;28.35;13.05;;;3.60;68.90;;;;;;2340044;53;21383;-74
2022/12/11 03:41:50;;;;;;;28.77;12.52;;;3.60;69.10;;;;;;2353033;53;21651;-73
2022/12/11 03:44:16;;;;;;;27.85;12.63;;;3.60;69.20;;;;;;2521086;53;20957;-74
2022/12/11 03:46:43;;;;;;;30.62;13.27;;;3.60;69.20;;;;;;2584501;52;20996;-73
2022/12/11 03:49:16;;;;;;;28.48;12.77;;;3.60;69.20;;;;;;2338577;53;21002;-74
2022/12/11 03:51:43;;;;;;;25.35;12.48;;;3.60;69.10;;;;;;2581936;53;21053;-75
2022/12/11 03:54:13;;;;;;;27.90;11.38;;;3.50;69.10;;;;;;2341586;53;20931;-73
2022/12/11 03:56:39;;;;;;;25.67;11.57;;;3.50;69.20;;;;;;2581562;53;20896;-74
2022/12/11 03:59:07;;;;;;;29.80;12.85;;;3.50;69.40;;;;;;2336445;54;21015;-74
2022/12/11 04:01:39;;;;;;;26.05;11.45;;;3.50;69.40;;;;;;2480809;53;20951;-73
2022/12/11 04:04:05;;;;;;;25.37;10.65;;;3.50;69.30;;;;;;2322125;54;20892;-75
2022/12/11 04:06:32;;;;;;;27.50;11.73;;;3.50;69.20;;;;;;2511093;53;20979;-73
2022/12/11 04:08:58;;;;;;;29.52;12.00;;;3.50;69.20;;;;;;2337602;54;20943;-72
2022/12/11 04:11:34;;;;;;;27.87;12.37;;;3.50;69.10;;;;;;2337796;54;20950;-75
2022/12/11 04:16:49;;;;;;;24.40;10.65;;;3.50;68.90;;;;;;2450299;53;20931;-73
2022/12/11 04:27:07;;;;;;;27.92;10.77;;;3.40;68.80;;;;;;2397794;53;21506;-74
2022/12/11 04:29:34;;;;;;;23.55;10.55;;;3.40;68.60;;;;;;2372836;53;21861;-74
2022/12/11 04:32:00;;;;;;;23.10;10.30;;;3.30;68.50;;;;;;2341244;53;20995;-71
2022/12/11 04:34:27;;;;;;;29.08;11.98;;;3.30;68.60;;;;;;2345463;53;20926;-72
2022/12/11 04:36:53;;;;;;;28.17;11.45;;;3.30;68.70;;;;;;2581234;53;20903;-75
2022/12/11 04:39:20;;;;;;;30.88;12.50;;;3.30;68.70;;;;;;2342520;54;21026;-73
2022/12/11 04:41:46;;;;;;;29.98;12.37;;;3.20;68.60;;;;;;2341485;53;20920;-72
2022/12/11 04:44:13;;;;;;;26.83;11.98;;;3.20;68.60;;;;;;2587227;52;20992;-73
2022/12/11 04:46:41;;;;;;;30.90;12.63;;;3.20;68.60;;;;;;2337947;54;20974;-75
2022/12/11 04:49:08;;;;;;;29.50;12.60;;;3.20;68.70;;;;;;2452557;53;21014;-72
2022/12/11 04:51:35;;;;;;;27.05;11.85;;;3.20;68.80;;;;;;2343593;53;20972;-72
2022/12/11 04:54:02;;;;;;;26.00;11.18;;;3.10;68.90;;;;;;2541667;53;21010;-72
2022/12/11 04:56:28;;;;;;;30.45;13.65;;;3.20;69.10;;;;;;2344117;53;20920;-72
2022/12/11 04:58:54;;;;;;;27.65;11.98;;;3.10;69.00;;;;;;2338995;54;20910;-72
2022/12/11 05:01:21;;;;;;;33.72;13.85;;;3.20;69.20;;;;;;2508516;53;21619;-72
2022/12/11 05:03:48;;;;;;;34.65;15.25;;;3.10;69.20;;;;;;2512023;53;20985;-73
2022/12/11 05:06:14;;;;;;;32.95;13.62;;;3.10;69.20;;;;;;2338464;54;20931;-72
2022/12/11 05:08:41;;;;;;;33.65;13.82;;;3.10;69.30;;;;;;2342479;54;21068;-73
2022/12/11 05:11:09;;;;;;;31.62;13.62;;;3.10;69.40;;;;;;2445091;52;20996;-74
2022/12/11 05:13:46;;;;;;;26.73;11.57;;;3.10;69.40;;;;;;2344880;53;22060;-72
2022/12/11 05:16:13;;;;;;;21.70;9.98;;;3.10;69.30;;;;;;2533625;52;21067;-74
2022/12/11 05:18:40;;;;;;;23.83;11.00;;;3.10;69.30;;;;;;2342384;53;21407;-73
2022/12/11 05:21:08;;;;;;;28.00;12.45;;;3.10;69.20;;;;;;2338136;54;20931;-72
2022/12/11 05:23:35;;;;;;;26.60;11.75;;;3.10;69.20;;;;;;2423874;53;21786;-72
2022/12/11 05:26:04;;;;;;;25.02;11.45;;;3.10;69.30;;;;;;2343230;53;20993;-75
2022/12/11 05:28:32;;;;;;;26.25;11.32;;;3.10;69.30;;;;;;2352787;53;21756;-74
2022/12/11 05:30:59;;;;;;;23.98;10.65;;;3.10;69.40;;;;;;2340436;53;21721;-74
2022/12/11 05:33:26;;;;;;;22.62;10.23;;;3.20;69.50;;;;;;2338345;54;20931;-71
2022/12/11 05:35:52;;;;;;;27.48;10.85;;;3.20;69.40;;;;;;2337639;54;20975;-75
2022/12/11 05:38:19;;;;;;;26.58;11.18;;;3.20;69.40;;;;;;2419719;53;20990;-74
2022/12/11 05:40:57;;;;;;;26.50;11.40;;;3.20;69.40;;;;;;2434408;53;20892;-72
2022/12/11 05:43:24;;;;;;;21.08;9.95;;;3.20;69.30;;;;;;2326902;54;20983;-73
2022/12/11 05:45:52;;;;;;;24.27;9.95;;;3.20;69.40;;;;;;2358271;53;20939;-72
2022/12/11 05:48:19;;;;;;;20.75;9.27;;;3.20;69.40;;;;;;2337633;54;21748;-74
2022/12/11 05:50:56;;;;;;;33.38;14.57;;;3.20;69.40;;;;;;2339403;54;20935;-74
2022/12/11 05:53:23;;;;;;;32.08;13.90;;;3.20;69.40;;;;;;2439234;53;20970;-71
2022/12/11 05:55:49;;;;;;;24.92;10.65;;;3.20;69.50;;;;;;2345068;53;20968;-73
2022/12/11 05:58:16;;;;;;;29.92;12.13;;;3.20;69.50;;;;;;2338725;53;20927;-73
2022/12/11 06:00:42;;;;;;;29.40;12.52;;;3.20;69.40;;;;;;2336995;54;20908;-73
2022/12/11 06:03:11;;;;;;;35.47;13.82;;;3.20;69.40;;;;;;2344622;53;20995;-73
2022/12/11 06:05:41;;;;;;;33.63;14.00;;;3.30;69.60;;;;;;2328269;54;21760;-73
2022/12/11 06:08:07;;;;;;;37.33;15.20;;;3.30;69.60;;;;;;2322437;54;21042;-74
2022/12/11 06:10:49;;;;;;;34.22;15.15;;;3.30;69.70;;;;;;2322577;54;21420;-73
2022/12/11 06:13:15;;;;;;;33.58;14.87;;;3.30;69.60;;;;;;2542388;53;20927;-72
2022/12/11 06:15:42;;;;;;;32.75;14.38;;;3.30;69.70;;;;;;2322694;54;20911;-73
2022/12/11 06:18:08;;;;;;;35.60;14.82;;;3.30;69.80;;;;;;2322518;54;20955;-73
2022/12/11 06:20:35;;;;;;;34.58;13.85;;;3.30;69.80;;;;;;2322144;54;20943;-72
2022/12/11 06:23:01;;;;;;;38.20;16.52;;;3.30;69.70;;;;;;2565355;53;21061;-71
2022/12/11 06:25:28;;;;;;;38.78;15.40;;;3.40;69.90;;;;;;2323130;56;21046;-74
2022/12/11 06:27:54;;;;;;;32.38;14.23;;;3.40;69.90;;;;;;2322195;54;20923;-74
2022/12/11 06:30:33;;;;;;;35.75;15.55;;;3.40;69.80;;;;;;2322747;54;20962;-74
2022/12/11 06:32:59;;;;;;;32.08;14.95;;;3.40;69.80;;;;;;2418016;53;21042;-72
2022/12/11 06:35:25;;;;;;;33.78;15.63;;;3.40;69.80;;;;;;2322887;54;20938;-71
2022/12/11 06:37:52;;;;;;;38.20;16.20;;;3.40;69.80;;;;;;2565837;53;22213;-72
2022/12/11 06:40:18;;;;;;;33.53;15.15;;;3.40;69.70;;;;;;2322223;54;20963;-72
2022/12/11 06:42:53;;;;;;;37.08;16.70;;;3.40;69.70;;;;;;2322380;54;22064;-74
2022/12/11 06:45:20;;;;;;;33.38;16.20;;;3.40;69.60;;;;;;2565683;53;20966;-74
2022/12/11 06:47:55;;;;;;;30.10;15.10;;;3.40;69.60;;;;;;2321595;54;21010;-73
2022/12/11 06:50:21;;;;;;;35.28;15.98;;;3.50;69.60;;;;;;2322590;54;20959;-74
2022/12/11 06:52:47;;;;;;;31.50;14.90;;;3.40;69.60;;;;;;2322238;54;20952;-72
2022/12/11 06:55:29;;;;;;;33.05;15.32;;;3.50;69.70;;;;;;2322860;54;22065;-72
2022/12/11 06:57:55;;;;;;;29.47;13.53;;;3.50;69.50;;;;;;2323213;54;21641;-74
2022/12/11 07:00:22;;;;;;;25.27;13.40;;;3.40;69.40;;;;;;2322286;54;21313;-73
2022/12/11 07:02:50;;;;;;;26.12;13.30;;;3.40;69.50;;;;;;2350213;53;22149;-72
2022/12/11 07:05:17;;;;;;;26.33;13.93;;;3.40;69.50;;;;;;2322397;54;21078;-75
2022/12/11 07:07:44;;;;;;;23.92;12.00;;;3.50;69.50;;;;;;2323573;53;21050;-72
2022/12/11 07:10:10;;;;;;;22.25;11.82;;;3.40;69.40;;;;;;2322937;54;21875;-73
2022/12/11 07:12:37;;;;;;;21.15;10.25;;;3.40;69.50;;;;;;2328161;53;20948;-72
2022/12/11 07:15:03;;;;;;;21.30;11.20;;;3.50;69.50;;;;;;2323432;54;21930;-73
2022/12/11 07:17:30;;;;;;;23.80;12.48;;;3.40;69.40;;;;;;2322624;54;20994;-75
2022/12/11 07:19:56;;;;;;;28.60;14.25;;;3.40;69.50;;;;;;2321967;54;20923;-74
2022/12/11 07:22:22;;;;;;;23.15;11.82;;;3.50;69.60;;;;;;2322696;54;20919;-73
2022/12/11 07:24:49;;;;;;;22.62;10.93;;;3.50;69.50;;;;;;2322220;54;20919;-72
2022/12/11 07:27:15;;;;;;;25.05;11.82;;;3.50;69.50;;;;;;2322891;54;20951;-74
2022/12/11 07:29:43;;;;;;;21.85;11.48;;;3.40;69.20;;;;;;2322747;54;20907;-73
2022/12/11 07:32:10;;;;;;;22.80;10.50;;;3.50;69.30;;;;;;2408057;53;20967;-73
2022/12/11 07:34:36;;;;;;;22.98;11.15;;;3.50;69.20;;;;;;2414726;53;20931;-75
2022/12/11 07:37:03;;;;;;;23.38;10.65;;;3.40;69.20;;;;;;2416481;53;21090;-74
2022/12/11 07:39:30;;;;;;;19.48;9.70;;;3.40;69.20;;;;;;2321842;54;20963;-74
2022/12/11 07:41:56;;;;;;;33.85;14.10;;;3.40;69.20;;;;;;2322030;54;20923;-75
2022/12/11 07:44:23;;;;;;;42.50;18.23;;;3.40;69.10;;;;;;2322695;54;20975;-72
2022/12/11 07:46:50;;;;;;;40.70;17.15;;;3.40;69.00;;;;;;2321211;54;20927;-73
2022/12/11 07:49:16;;;;;;;42.65;18.95;;;3.40;69.10;;;;;;2321669;54;20965;-74
2022/12/11 07:51:42;;;;;;;34.40;17.80;;;3.40;69.10;;;;;;2322733;54;20923;-73
2022/12/11 07:54:15;;;;;;;31.17;16.42;;;3.40;69.00;;;;;;2322717;54;20923;-72
2022/12/11 07:56:59;;;;;;;31.67;16.33;;;3.40;68.90;;;;;;2566626;53;20911;-72
2022/12/11 07:59:26;;;;;;;29.20;14.30;;;3.40;68.60;;;;;;2322719;54;20964;-73
2022/12/11 08:01:52;;;;;;;27.80;13.13;;;3.40;68.90;;;;;;2322167;54;21042;-74
2022/12/11 08:04:27;;;;;;;28.15;13.75;;;3.40;68.90;;;;;;2322001;54;20959;-73
2022/12/11 08:06:54;;;;;;;26.90;13.70;;;3.30;68.70;;;;;;2533649;53;20943;-72
2022/12/11 08:09:21;;;;;;;27.05;12.85;;;3.30;68.70;;;;;;2327948;53;20992;-73
2022/12/11 08:11:50;;;;;;;22.83;11.93;;;3.30;68.70;;;;;;2323329;53;20927;-74
2022/12/11 08:14:17;;;;;;;26.20;11.95;;;3.30;68.70;;;;;;2338326;53;20935;-75
2022/12/11 08:16:44;;;;;;;24.67;12.65;;;3.30;68.80;;;;;;2322912;54;20967;-74
2022/12/11 08:19:25;;;;;;;24.67;12.30;;;3.30;68.90;;;;;;2322319;54;20970;-74
2022/12/11 08:21:52;;;;;;;19.37;10.53;;;3.30;68.80;;;;;;2322561;54;21994;-74
2022/12/11 08:24:19;;;;;;;39.90;21.90;;;3.30;69.00;;;;;;2322286;54;20903;-73
2022/12/11 08:26:47;;;;;;;38.80;22.13;;;3.30;69.00;;;;;;2322576;54;20954;-74
2022/12/11 08:29:13;;;;;;;27.25;13.62;;;3.30;68.90;;;;;;2322927;54;21451;-72
2022/12/11 08:31:40;;;;;;;27.05;13.02;;;3.30;69.00;;;;;;2322367;54;20982;-75
2022/12/11 08:34:07;;;;;;;28.58;13.85;;;3.30;69.00;;;;;;2321920;54;20915;-73
2022/12/11 08:36:33;;;;;;;30.02;14.77;;;3.30;68.90;;;;;;2321702;54;21510;-71
2022/12/11 08:39:00;;;;;;;24.90;12.40;;;3.30;68.70;;;;;;2322317;54;21943;-74
2022/12/11 08:41:27;;;;;;;26.95;13.68;;;3.30;68.60;;;;;;2323358;54;21519;-72
2022/12/11 08:43:54;;;;;;;28.35;13.45;;;3.30;68.70;;;;;;2326402;54;20983;-73
2022/12/11 08:46:24;;;;;;;23.85;12.98;;;3.30;68.70;;;;;;2329102;53;21872;-74
2022/12/11 08:48:51;;;;;;;25.92;12.75;;;3.30;68.70;;;;;;2337043;53;21506;-75
2022/12/11 08:51:21;;;;;;;26.40;13.35;;;3.30;68.80;;;;;;2323050;54;20926;-72
2022/12/11 08:53:48;;;;;;;25.98;12.45;;;3.30;68.90;;;;;;2322953;54;21982;-75
2022/12/11 08:56:16;;;;;;;27.52;13.43;;;3.30;68.90;;;;;;2322208;54;20971;-73
2022/12/11 08:58:44;;;;;;;23.98;12.45;;;3.30;68.90;;;;;;2322779;54;20939;-71
2022/12/11 09:01:13;;;;;;;25.98;12.73;;;3.30;68.80;;;;;;2360753;53;20942;-72
2022/12/11 09:03:39;;;;;;;27.33;13.13;;;3.30;68.70;;;;;;2348526;53;21090;-72
2022/12/11 09:06:06;;;;;;;24.80;12.60;;;3.30;68.80;;;;;;2470956;53;20983;-75
2022/12/11 09:08:33;;;;;;;27.20;12.98;;;3.30;68.80;;;;;;2498308;53;21002;-72
2022/12/11 09:14:39;;;;;;;28.40;13.13;;;3.30;68.60;;;;;;2322713;54;20971;-72
2022/12/11 09:17:06;;;;;;;27.13;13.32;;;3.30;68.70;;;;;;2322689;54;20932;-73
2022/12/11 09:19:33;;;;;;;26.60;13.30;;;3.30;68.90;;;;;;2322614;54;21712;-72
2022/12/11 09:22:00;;;;;;;27.02;13.45;;;3.30;69.00;;;;;;2322744;54;20971;-74
2022/12/11 09:24:26;;;;;;;27.08;13.88;;;3.30;69.10;;;;;;2322320;54;20919;-74
2022/12/11 09:26:53;;;;;;;27.75;14.38;;;3.30;69.70;;;;;;2391422;53;20951;-73
2022/12/11 09:29:19;;;;;;;31.17;14.45;;;3.30;69.30;;;;;;2322757;54;20930;-74
2022/12/11 09:31:47;;;;;;;25.02;12.50;;;3.30;69.30;;;;;;2414110;53;20931;-75
2022/12/11 09:34:13;;;;;;;22.23;11.73;;;3.40;69.40;;;;;;2319138;54;21034;-74
2022/12/11 09:36:40;;;;;;;26.23;12.75;;;3.40;69.50;;;;;;2323159;54;20993;-75
2022/12/11 09:39:07;;;;;;;29.23;14.13;;;3.40;69.50;;;;;;2464742;53;20915;-74
2022/12/11 09:41:39;;;;;;;56.67;24.73;;;3.40;69.60;;;;;;2322215;54;21086;-75
2022/12/11 09:44:15;;;;;;;36.95;18.23;;;3.40;69.60;;;;;;2322748;54;21058;-72
2022/12/11 09:46:42;;;;;;;36.20;16.62;;;3.50;69.50;;;;;;2322853;54;21326;-72
2022/12/11 09:49:36;;;;;;;29.42;14.75;;;3.50;69.50;;;;;;2322812;54;22203;-75
2022/12/11 09:52:22;;;;;;;25.23;13.45;;;3.50;69.20;;;;;;2322724;53;20903;-75
2022/12/11 09:54:53;;;;;;;25.17;12.45;;;3.50;69.40;;;;;;2450792;53;22001;-73
2022/12/11 10:00:03;;;;;;;28.60;14.80;;;3.50;69.60;;;;;;2322485;54;22044;-75
2022/12/11 10:02:55;;;;;;;29.42;13.18;;;3.60;69.90;;;;;;2323054;54;20990;-73
2022/12/11 10:06:02;;;;;;;28.33;13.43;;;3.70;70.10;;;;;;2322278;54;22161;-73
2022/12/11 10:10:11;;;;;;;28.95;14.07;;;3.70;70.10;;;;;;2474262;53;20955;-72
2022/12/11 10:15:50;;;;;;;25.37;12.65;;;3.80;69.80;;;;;;2323204;54;20931;-75
2022/12/11 10:18:18;;;;;;;25.55;11.93;;;3.90;69.70;;;;;;2322601;54;20952;-75
2022/12/11 10:20:44;;;;;;;30.85;15.18;;;3.90;70.20;;;;;;2429472;53;20919;-74
2022/12/11 10:23:24;;;;;;;28.23;13.65;;;3.90;70.30;;;;;;2331357;54;20955;-75
2022/12/11 10:26:13;;;;;;;54.35;29.55;;;4.00;70.20;;;;;;2330481;53;20943;-73
2022/12/11 10:28:39;;;;;;;29.70;14.55;;;4.00;70.10;;;;;;2328108;54;20915;-73
2022/12/11 10:31:31;;;;;;;29.87;14.77;;;4.00;70.20;;;;;;2328032;54;20970;-73
2022/12/11 10:34:14;;;;;;;31.08;14.27;;;4.10;70.10;;;;;;2519598;53;22137;-74
2022/12/11 10:36:40;;;;;;;33.17;16.27;;;4.10;70.20;;;;;;2329358;53;20951;-75
2022/12/11 10:39:17;;;;;;;31.67;14.68;;;4.10;70.20;;;;;;2327896;54;21086;-73
2022/12/11 10:41:51;;;;;;;35.13;15.50;;;4.20;70.50;;;;;;2328394;54;21439;-74
2022/12/11 10:44:24;;;;;;;33.00;14.93;;;4.20;70.70;;;;;;2327338;54;21596;-73
2022/12/11 10:47:14;;;;;;;32.53;15.40;;;4.20;70.80;;;;;;2328235;54;20943;-72
2022/12/11 10:49:53;;;;;;;38.75;17.70;;;4.30;70.60;;;;;;2329867;54;21050;-73
2022/12/11 10:52:22;;;;;;;35.08;17.55;;;4.30;70.70;;;;;;2327822;54;21083;-75
2022/12/11 10:55:23;;;;;;;32.97;16.75;;;4.40;71.00;;;;;;2446969;53;20950;-73
2022/12/11 10:58:32;;;;;;;32.03;15.85;;;4.40;71.00;;;;;;2327405;54;22001;-74
2022/12/11 11:01:02;;;;;;;29.10;14.43;;;4.50;71.20;;;;;;2459514;52;21024;-75
2022/12/11 11:03:29;;;;;;;29.83;14.23;;;4.60;71.20;;;;;;2320650;53;21677;-73
2022/12/11 11:06:04;;;;;;;27.20;13.95;;;4.60;71.10;;;;;;2437132;53;20955;-73
2022/12/11 11:08:40;;;;;;;25.95;13.27;;;4.70;71.00;;;;;;2312422;55;20971;-73
2022/12/11 11:11:26;;;;;;;25.30;13.30;;;4.70;70.80;;;;;;2328076;54;21574;-75
2022/12/11 11:14:18;;;;;;;24.40;13.40;;;4.80;70.80;;;;;;2370606;53;21008;-74
2022/12/11 11:16:46;;;;;;;27.37;12.68;;;4.80;70.60;;;;;;2346140;53;20931;-74
2022/12/11 11:20:16;;;;;;;26.45;13.75;;;4.90;70.90;;;;;;2329587;54;20935;-72
2022/12/11 11:22:52;;;;;;;18.65;9.77;;;4.90;70.40;;;;;;2328059;54;20967;-74
2022/12/11 11:25:22;;;;;;;25.27;12.85;;;4.90;70.80;;;;;;2331933;53;21048;-73
2022/12/11 11:27:57;;;;;;;24.70;13.07;;;5.00;70.70;;;;;;2349587;53;20926;-73
2022/12/11 11:30:25;;;;;;;23.15;11.93;;;5.00;70.70;;;;;;2337533;53;20982;-73
2022/12/11 11:32:54;;;;;;;27.02;13.93;;;5.10;70.70;;;;;;2339542;53;21003;-74
2022/12/11 11:35:32;;;;;;;23.12;11.95;;;5.10;70.60;;;;;;2357255;52;21854;-75
2022/12/11 11:49:49;;;;;;;26.12;14.10;;;5.10;70.30;;;;;;2334001;53;1296852;-74
2022/12/11 11:52:55;;;;;;;21.25;9.80;;;5.30;69.70;;;;;;2327411;54;20943;-71
2022/12/11 11:58:21;;;;;;;24.08;11.07;;;5.30;69.80;;;;;;2327270;54;20962;-74
2022/12/11 12:00:48;;;;;;;22.52;10.60;;;5.30;69.30;;;;;;2345110;53;20935;-73
2022/12/11 12:03:18;;;;;;;22.65;11.10;;;5.30;70.00;;;;;;2327591;54;21428;-73
2022/12/11 12:08:57;;;;;;;22.25;10.55;;;5.30;70.00;;;;;;2351809;53;22094;-75
2022/12/11 12:12:11;;;;;;;21.45;10.88;;;5.30;69.30;;;;;;2327366;54;20996;-74
2022/12/11 12:17:57;;;;;;;23.38;11.45;;;5.30;69.50;;;;;;2349949;53;21447;-75
2022/12/11 12:20:28;;;;;;;21.52;10.02;;;5.30;69.80;;;;;;2334545;53;21917;-74
2022/12/11 12:23:17;;;;;;;18.60;9.38;;;5.40;69.80;;;;;;2327728;54;20896;-74
2022/12/11 12:25:51;;;;;;;23.25;11.82;;;5.40;69.70;;;;;;2327899;54;21050;-73
2022/12/11 12:30:16;;;;;;;22.42;11.45;;;5.30;69.90;;;;;;2447407;53;20942;-74
2022/12/11 12:37:27;;;;;;;25.77;13.10;;;5.40;69.30;;;;;;2330990;53;20928;-75
2022/12/11 12:40:25;;;;;;;23.25;11.50;;;5.40;69.00;;;;;;2341335;53;20928;-74
2022/12/11 12:43:17;;;;;;;23.98;11.95;;;5.40;69.60;;;;;;2582360;52;20975;-74
2022/12/11 12:46:11;;;;;;;19.70;10.07;;;5.50;69.80;;;;;;2337228;54;20939;-73
2022/12/11 12:48:37;;;;;;;19.52;10.43;;;5.40;69.80;;;;;;2337117;54;20999;-75
2022/12/11 12:51:03;;;;;;;23.20;11.60;;;5.40;70.00;;;;;;2337978;54;20903;-74
2022/12/11 12:53:32;;;;;;;18.60;9.95;;;5.50;70.10;;;;;;2515468;53;21010;-73
2022/12/11 12:55:58;;;;;;;21.83;11.32;;;5.50;70.00;;;;;;2350619;53;20979;-72
2022/12/11 12:58:42;;;;;;;23.17;11.32;;;5.50;70.00;;;;;;2338085;54;21444;-72
2022/12/11 13:01:27;;;;;;;20.27;10.73;;;5.50;69.80;;;;;;2337384;54;20971;-73
2022/12/11 13:04:04;;;;;;;19.02;9.73;;;5.50;69.20;;;;;;2372034;53;20943;-72
2022/12/11 13:06:39;;;;;;;21.00;10.70;;;5.50;69.30;;;;;;2335531;54;21269;-72
2022/12/11 13:09:25;;;;;;;18.23;9.48;;;5.50;69.20;;;;;;2332003;54;20907;-73
2022/12/11 13:11:56;;;;;;;21.20;10.75;;;5.50;68.90;;;;;;2352845;53;20905;-74
2022/12/11 13:14:27;;;;;;;22.30;10.93;;;5.40;69.00;;;;;;2544372;53;21029;-72
2022/12/11 13:17:26;;;;;;;23.60;10.98;;;5.40;68.90;;;;;;2329442;54;21038;-73
2022/12/11 13:20:10;;;;;;;29.15;12.88;;;5.40;68.70;;;;;;2341163;53;21020;-73
2022/12/11 13:22:50;;;;;;;25.17;12.32;;;5.40;68.50;;;;;;2333145;53;21058;-72
2022/12/11 13:25:27;;;;;;;27.90;12.90;;;5.40;68.60;;;;;;2349758;53;22070;-72
2022/12/11 13:28:07;;;;;;;27.50;13.45;;;5.30;68.30;;;;;;2336532;53;20945;-72
2022/12/11 13:30:35;;;;;;;27.65;12.02;;;5.30;68.00;;;;;;2315745;54;20936;-72
2022/12/11 13:33:06;;;;;;;25.55;12.82;;;5.30;68.30;;;;;;2329661;54;20931;-72
2022/12/11 13:35:35;;;;;;;25.17;13.60;;;5.30;68.10;;;;;;2573089;53;20986;-74
2022/12/11 13:38:17;;;;;;;26.95;13.35;;;5.20;68.10;;;;;;2426271;53;21091;-74
2022/12/11 13:40:43;;;;;;;24.87;11.73;;;5.20;68.00;;;;;;2329376;54;20907;-73
2022/12/11 13:43:18;;;;;;;26.73;12.18;;;5.20;68.30;;;;;;2329188;54;21055;-73
2022/12/11 13:45:49;;;;;;;26.83;12.30;;;5.10;68.00;;;;;;2328309;54;20935;-72
2022/12/11 13:48:55;;;;;;;26.65;12.05;;;5.10;68.20;;;;;;2352871;53;21019;-72
2022/12/11 13:51:23;;;;;;;25.77;12.40;;;5.10;67.80;;;;;;2328729;54;20966;-72
2022/12/11 13:54:04;;;;;;;22.67;10.75;;;5.00;68.30;;;;;;2329014;54;20915;-74
2022/12/11 13:56:33;;;;;;;26.10;12.48;;;5.00;68.30;;;;;;2332815;54;21247;-72